Weather at Beringin Airport

Public forecast

Using degrees Celsius for public forecast. Weather courtesy of forecast.io.

Closest aviation weather report (METAR) to Beringin Airport

Closest report is Sultan Aji Muhamad Sulaiman Airport, 121.7 nm (225.3 km) E. Retrieved 2021/08/04 04:30 UTC (50 minutes ago):

WALL 040430Z 24007KT 9999 BKN017 30/27 Q1011

Closest aviation forecast (TAF) to Beringin Airport

Closest forecast is Sultan Aji Muhamad Sulaiman Airport, 121.7 nm (225.3 km) E. Retrieved 2021-08-04 00:00 UTC (5 hours ago):

TAF WALL 032300Z 0400/0506 27004KT 9000 SCT018 TEMPO 0402/0406 8000 -RA FEW018CB